Karinya Fr699 — MAUA8 — position and weather

sailwx.info

Track history (hours):
 
Tides and Currents Weather Stations Pressure Air Temp Water Temp Dewpoint Dewpoint Depression Visibility Wind Speed Wind Dir Waves Ship Positions

Karinya Fr699

Last reported at 2014-Sep-18 09:34 UTC. Time now 2014-Sep-18 23:49 UTC.
Position N 57°42' W 002°00'.

Length 16 m.

MMSI: 235018981.

Date/timePositionNaut miles runAvg speedWind from/ knotsBaromVisibWave heightAir tempDewpointWater temp
2014-Sep-18 09:34N 57°42' W 002°00'0 0.0
2014-Sep-18 08:33N 57°42' W 002°00'0 0.0
2014-Sep-18 07:33N 57°42' W 002°00'0 0.0
2014-Sep-18 06:34N 57°42' W 002°00'0 0.1
2014-Sep-18 05:34N 57°41' W 002°00'1 1.3
2014-Sep-18 04:34N 57°42' W 001°58'8 7.5
2014-Sep-18 03:34N 57°47' W 001°47'  
2014-Sep-13 20:34N 57°43' W 001°49'6 6.1
2014-Sep-13 19:34N 57°41' W 001°60'0 0.1
2014-Sep-13 18:34N 57°41' W 001°60'0 0.0
2014-Sep-13 17:34N 57°41' W 001°60'0 0.0
2014-Sep-13 16:33N 57°41' W 001°60'0 0.0
2014-Sep-13 15:34N 57°41' W 001°60'0 0.0
2014-Sep-13 14:34N 57°41' W 001°60'0 0.0
2014-Sep-13 13:34N 57°41' W 001°60'0 0.1
2014-Sep-13 12:34N 57°41' W 002°00'4 0.1
2014-Sep-11 13:18N 57°43' W 002°07'4 5.3
2014-Sep-11 12:34N 57°41' W 002°00'0 0.0
2014-Sep-10 18:33N 57°42' W 002°00'0 0.0
2014-Sep-10 17:34N 57°42' W 002°00'0 0.1
2014-Sep-10 16:33N 57°42' W 001°60'0 0.0
2014-Sep-10 15:33N 57°42' W 001°60'0 0.0
2014-Sep-10 14:33N 57°42' W 001°60'5 4.6
2014-Sep-10 13:33N 57°42' W 001°51'7 7.1
2014-Sep-10 12:33N 57°41' W 001°38'  
Track history (hours):
 
Tides and Currents Weather Stations Pressure Air Temp Water Temp Dewpoint Dewpoint Depression Visibility Wind Speed Wind Dir Waves Ship Positions

Karinya Fr699

Last reported at 2014-Sep-18 09:34 UTC. Time now 2014-Sep-18 23:49 UTC.
Position N 57°42' W 002°00'.

Length 16 m.

MMSI: 235018981.

Date/timePositionNaut miles runAvg speedWind from/ knotsBaromVisibWave heightAir tempDewpointWater temp
2014-Sep-18 09:34N 57°42' W 002°00'0 0.0
2014-Sep-18 08:33N 57°42' W 002°00'0 0.0
2014-Sep-18 07:33N 57°42' W 002°00'0 0.0
2014-Sep-18 06:34N 57°42' W 002°00'0 0.1
2014-Sep-18 05:34N 57°41' W 002°00'1 1.3
2014-Sep-18 04:34N 57°42' W 001°58'8 7.5
2014-Sep-18 03:34N 57°47' W 001°47'  
2014-Sep-13 20:34N 57°43' W 001°49'6 6.1
2014-Sep-13 19:34N 57°41' W 001°60'0 0.1
2014-Sep-13 18:34N 57°41' W 001°60'0 0.0
2014-Sep-13 17:34N 57°41' W 001°60'0 0.0
2014-Sep-13 16:33N 57°41' W 001°60'0 0.0
2014-Sep-13 15:34N 57°41' W 001°60'0 0.0
2014-Sep-13 14:34N 57°41' W 001°60'0 0.0
2014-Sep-13 13:34N 57°41' W 001°60'0 0.1
2014-Sep-13 12:34N 57°41' W 002°00'4 0.1
2014-Sep-11 13:18N 57°43' W 002°07'4 5.3
2014-Sep-11 12:34N 57°41' W 002°00'0 0.0
2014-Sep-10 18:33N 57°42' W 002°00'0 0.0
2014-Sep-10 17:34N 57°42' W 002°00'0 0.1
2014-Sep-10 16:33N 57°42' W 001°60'0 0.0
2014-Sep-10 15:33N 57°42' W 001°60'0 0.0
2014-Sep-10 14:33N 57°42' W 001°60'5 4.6
2014-Sep-10 13:33N 57°42' W 001°51'7 7.1
2014-Sep-10 12:33N 57°41' W 001°38'  

Dump ship's entire track history